Time;durP1;ratioP1;P1;durP2;ratioP2;P2;SDS_P1;SDS_P2;PMS_P1;PMS_P2;Temp;Humidity;BMP_temperature;BMP_pressure;BME280_temperature;BME280_humidity;BME280_pressure;Samples;Min_cycle;Max_cycle;Signal;HPM_P1;HPM_P2
2021/07/02 00:01:13;;;;;;;3.25;2.00;;;;;;;;;;5067432;28;20040;-70
2021/07/02 00:03:39;;;;;;;4.20;1.80;;;;;;;;;;5066345;28;20034;-70
2021/07/02 00:06:06;;;;;;;2.58;1.58;;;;;;;;;;5070906;28;20012;-70
2021/07/02 00:08:33;;;;;;;1.90;1.65;;;;;;;;;;5067344;28;20025;-70
2021/07/02 00:10:59;;;;;;;3.67;1.63;;;;;;;;;;5067483;28;20586;-70
2021/07/02 00:13:25;;;;;;;2.03;1.70;;;;;;;;;;5065975;28;20032;-70
2021/07/02 00:15:51;;;;;;;2.00;1.63;;;;;;;;;;5067731;28;20056;-70
2021/07/02 00:18:17;;;;;;;1.70;1.60;;;;;;;;;;5067335;28;20021;-69
2021/07/02 00:20:43;;;;;;;2.30;1.77;;;;;;;;;;5067213;28;20016;-70
2021/07/02 00:23:10;;;;;;;1.70;1.60;;;;;;;;;;5065469;28;20027;-71
2021/07/02 00:25:38;;;;;;;2.85;1.98;;;;;;;;;;5067155;28;20020;-70
2021/07/02 00:28:05;;;;;;;3.05;1.80;;;;;;;;;;5066990;28;20106;-71
2021/07/02 00:30:31;;;;;;;2.38;1.70;;;;;;;;;;5074338;28;20028;-70
2021/07/02 00:32:58;;;;;;;2.67;1.92;;;;;;;;;;5066462;28;20023;-71
2021/07/02 00:35:24;;;;;;;2.97;1.95;;;;;;;;;;5068130;28;20028;-69
2021/07/02 00:37:50;;;;;;;2.55;2.00;;;;;;;;;;5066824;28;20017;-70
2021/07/02 00:40:16;;;;;;;1.70;1.50;;;;;;;;;;5066653;28;20549;-70
2021/07/02 00:42:42;;;;;;;2.00;1.73;;;;;;;;;;5068166;28;20379;-71
2021/07/02 00:45:08;;;;;;;3.03;1.70;;;;;;;;;;5066852;28;20074;-70
2021/07/02 00:47:35;;;;;;;2.22;1.80;;;;;;;;;;5065084;28;20017;-70
2021/07/02 00:50:01;;;;;;;1.98;1.77;;;;;;;;;;5065686;28;20039;-71
2021/07/02 00:52:27;;;;;;;1.90;1.50;;;;;;;;;;5066852;28;20024;-70
2021/07/02 00:54:53;;;;;;;2.90;2.08;;;;;;;;;;5066802;28;20020;-70
2021/07/02 00:57:19;;;;;;;1.85;1.52;;;;;;;;;;5066186;28;20024;-70
2021/07/02 00:59:46;;;;;;;3.17;1.80;;;;;;;;;;5064854;28;20021;-70
2021/07/02 01:02:13;;;;;;;2.80;1.75;;;;;;;;;;5067422;28;20020;-71
2021/07/02 01:04:39;;;;;;;1.90;1.70;;;;;;;;;;5045469;28;21053;-70
2021/07/02 01:07:06;;;;;;;2.25;1.80;;;;;;;;;;5066572;28;20023;-70
2021/07/02 01:09:32;;;;;;;4.35;1.80;;;;;;;;;;5066461;28;20068;-70
2021/07/02 01:11:59;;;;;;;7.25;1.90;;;;;;;;;;5075773;28;20027;-70
2021/07/02 01:14:26;;;;;;;1.88;1.67;;;;;;;;;;5066347;28;20029;-71
2021/07/02 01:16:52;;;;;;;2.67;1.70;;;;;;;;;;5066109;28;20020;-71
2021/07/02 01:19:18;;;;;;;5.85;2.03;;;;;;;;;;5066594;28;20067;-70
2021/07/02 01:21:44;;;;;;;2.30;1.60;;;;;;;;;;5066163;28;20016;-70
2021/07/02 01:24:10;;;;;;;3.15;1.75;;;;;;;;;;5064463;28;20078;-70
2021/07/02 01:26:37;;;;;;;2.40;1.60;;;;;;;;;;5073518;28;20131;-70
2021/07/02 01:29:03;;;;;;;2.10;1.60;;;;;;;;;;5066137;28;20033;-70
2021/07/02 01:31:29;;;;;;;4.13;1.98;;;;;;;;;;5066400;28;20603;-73
2021/07/02 01:33:55;;;;;;;4.13;1.73;;;;;;;;;;5066257;28;20035;-72
2021/07/02 01:36:22;;;;;;;3.22;1.70;;;;;;;;;;5064435;28;20020;-71
2021/07/02 01:38:48;;;;;;;2.85;1.70;;;;;;;;;;5068019;28;20745;-71
2021/07/02 01:41:15;;;;;;;4.22;1.85;;;;;;;;;;5065926;28;20028;-70
2021/07/02 01:43:41;;;;;;;1.63;1.50;;;;;;;;;;5066557;28;20025;-70
2021/07/02 01:46:07;;;;;;;2.35;1.77;;;;;;;;;;5070527;28;20028;-70
2021/07/02 01:48:34;;;;;;;2.88;1.90;;;;;;;;;;5066075;28;20032;-70
2021/07/02 01:51:00;;;;;;;2.10;1.65;;;;;;;;;;5065853;28;20025;-73
2021/07/02 01:53:26;;;;;;;1.80;1.40;;;;;;;;;;5063952;28;20125;-70
2021/07/02 01:55:52;;;;;;;2.72;1.60;;;;;;;;;;5066184;28;20024;-71
2021/07/02 01:58:18;;;;;;;2.47;1.55;;;;;;;;;;5072914;28;20024;-71
2021/07/02 02:00:45;;;;;;;2.58;1.83;;;;;;;;;;5065583;28;20021;-71
2021/07/02 02:03:11;;;;;;;2.55;1.70;;;;;;;;;;5069904;28;20024;-70
2021/07/02 02:05:37;;;;;;;1.90;1.60;;;;;;;;;;5070075;28;20029;-71
2021/07/02 02:08:04;;;;;;;6.43;1.75;;;;;;;;;;5069951;28;20032;-70
2021/07/02 02:10:30;;;;;;;3.65;2.10;;;;;;;;;;5070101;28;20025;-70
2021/07/02 02:12:56;;;;;;;2.58;1.70;;;;;;;;;;5068194;28;20027;-70
2021/07/02 02:15:23;;;;;;;2.30;1.92;;;;;;;;;;5073193;28;20019;-70
2021/07/02 02:17:49;;;;;;;3.13;1.67;;;;;;;;;;5069696;28;20070;-70
2021/07/02 02:20:16;;;;;;;1.70;1.60;;;;;;;;;;5069827;28;20103;-71
2021/07/02 02:22:42;;;;;;;2.53;1.85;;;;;;;;;;5068034;28;20095;-69
2021/07/02 02:25:09;;;;;;;3.72;2.10;;;;;;;;;;5071103;28;20024;-70
2021/07/02 02:27:35;;;;;;;2.35;1.77;;;;;;;;;;5072891;28;20039;-69
2021/07/02 02:30:01;;;;;;;3.03;1.83;;;;;;;;;;5071874;28;20044;-70
2021/07/02 02:32:28;;;;;;;2.92;1.88;;;;;;;;;;5069480;28;20032;-70
2021/07/02 02:34:54;;;;;;;2.60;2.00;;;;;;;;;;5067711;28;20270;-69
2021/07/02 02:37:20;;;;;;;2.10;1.50;;;;;;;;;;5069648;28;20099;-72
2021/07/02 02:39:46;;;;;;;2.08;1.88;;;;;;;;;;5069459;28;20040;-70
2021/07/02 02:42:12;;;;;;;2.65;2.08;;;;;;;;;;5069098;28;20056;-72
2021/07/02 02:44:39;;;;;;;2.50;1.75;;;;;;;;;;5067649;28;20587;-70
2021/07/02 02:47:05;;;;;;;2.88;1.98;;;;;;;;;;5069192;28;20050;-70
2021/07/02 02:49:31;;;;;;;2.72;1.90;;;;;;;;;;5069342;28;20040;-71
2021/07/02 02:51:57;;;;;;;2.20;1.80;;;;;;;;;;5069009;28;20021;-70
2021/07/02 02:54:23;;;;;;;2.13;1.92;;;;;;;;;;5078355;28;20093;-71
2021/07/02 02:57:05;;;;;;;2.30;1.70;;;;;;;;;;5068935;28;20433;-69
2021/07/02 02:59:32;;;;;;;2.10;1.70;;;;;;;;;;5068887;28;20028;-71
2021/07/02 03:01:58;;;;;;;2.45;1.83;;;;;;;;;;5069017;28;20143;-70
2021/07/02 03:04:24;;;;;;;2.45;1.77;;;;;;;;;;5062193;28;20028;-69
2021/07/02 03:06:51;;;;;;;2.03;1.70;;;;;;;;;;5061352;28;20094;-69
2021/07/02 03:09:17;;;;;;;2.00;1.80;;;;;;;;;;5063629;28;20492;-70
2021/07/02 03:11:44;;;;;;;3.58;2.00;;;;;;;;;;5063696;28;20413;-70
2021/07/02 03:14:11;;;;;;;2.13;1.75;;;;;;;;;;5063034;28;20166;-71
2021/07/02 03:16:38;;;;;;;4.22;2.00;;;;;;;;;;5063963;28;20107;-69
2021/07/02 03:19:04;;;;;;;3.40;2.08;;;;;;;;;;5061832;28;20035;-69
2021/07/02 03:21:30;;;;;;;2.92;1.90;;;;;;;;;;5070885;28;20024;-70
2021/07/02 03:23:56;;;;;;;2.45;1.90;;;;;;;;;;5063956;28;20070;-70
2021/07/02 03:26:23;;;;;;;2.20;2.00;;;;;;;;;;5064902;28;20019;-71
2021/07/02 03:28:49;;;;;;;2.97;2.00;;;;;;;;;;5063330;28;20052;-70
2021/07/02 03:31:15;;;;;;;2.80;2.10;;;;;;;;;;5063333;28;20021;-70
2021/07/02 03:33:41;;;;;;;4.28;2.42;;;;;;;;;;5061905;28;20029;-69
2021/07/02 03:36:07;;;;;;;5.18;2.45;;;;;;;;;;5063393;28;20020;-69
2021/07/02 03:38:33;;;;;;;4.50;2.40;;;;;;;;;;5069200;28;20032;-70
2021/07/02 03:40:59;;;;;;;4.80;2.10;;;;;;;;;;5068167;28;20096;-69
2021/07/02 03:43:26;;;;;;;3.90;2.00;;;;;;;;;;5063267;28;20032;-70
2021/07/02 03:45:52;;;;;;;5.38;2.63;;;;;;;;;;5062911;28;20028;-70
2021/07/02 03:48:18;;;;;;;3.47;2.10;;;;;;;;;;5067781;28;20107;-69
2021/07/02 03:50:44;;;;;;;6.15;2.83;;;;;;;;;;5062507;28;20062;-70
2021/07/02 03:53:10;;;;;;;3.95;2.40;;;;;;;;;;5062860;28;20154;-70
2021/07/02 03:55:36;;;;;;;5.63;2.10;;;;;;;;;;5050735;28;20115;-69
2021/07/02 03:58:03;;;;;;;4.85;2.78;;;;;;;;;;5062940;28;20026;-69
2021/07/02 04:00:30;;;;;;;4.40;2.65;;;;;;;;;;5062240;28;20028;-69
2021/07/02 04:02:56;;;;;;;5.25;2.42;;;;;;;;;;5060988;28;20036;-70
2021/07/02 04:05:22;;;;;;;5.30;2.72;;;;;;;;;;5062630;28;20016;-69
2021/07/02 04:07:48;;;;;;;3.92;2.58;;;;;;;;;;5062053;28;20028;-70
2021/07/02 04:10:14;;;;;;;4.93;2.67;;;;;;;;;;5062922;28;20041;-70
2021/07/02 04:12:41;;;;;;;11.65;3.58;;;;;;;;;;5062496;28;20508;-69
2021/07/02 04:15:08;;;;;;;4.80;2.75;;;;;;;;;;5067372;28;20035;-69
2021/07/02 04:17:35;;;;;;;4.32;2.40;;;;;;;;;;5061334;28;20421;-69
2021/07/02 04:20:02;;;;;;;5.32;2.67;;;;;;;;;;5062547;28;20106;-69
2021/07/02 04:22:28;;;;;;;4.82;2.90;;;;;;;;;;5062535;28;20508;-69
2021/07/02 04:24:54;;;;;;;4.93;3.20;;;;;;;;;;5063695;28;20419;-74
2021/07/02 04:27:21;;;;;;;7.35;3.00;;;;;;;;;;5060794;28;20048;-71
2021/07/02 04:29:47;;;;;;;8.32;3.38;;;;;;;;;;5062417;28;20156;-70
2021/07/02 04:32:13;;;;;;;5.75;2.92;;;;;;;;;;5062274;28;20074;-72
2021/07/02 04:34:40;;;;;;;4.32;3.25;;;;;;;;;;5062098;28;20025;-69
2021/07/02 04:37:06;;;;;;;3.75;2.72;;;;;;;;;;5062648;28;20017;-69
2021/07/02 04:39:32;;;;;;;8.98;3.30;;;;;;;;;;5061674;28;20107;-70
2021/07/02 04:41:58;;;;;;;7.32;3.30;;;;;;;;;;5061351;28;20072;-70
2021/07/02 04:44:24;;;;;;;8.38;3.10;;;;;;;;;;5064126;28;20492;-69
2021/07/02 04:46:50;;;;;;;4.82;2.88;;;;;;;;;;5061484;28;20174;-70
2021/07/02 04:49:17;;;;;;;9.73;4.00;;;;;;;;;;5061575;28;20040;-70
2021/07/02 04:51:43;;;;;;;8.38;3.20;;;;;;;;;;5060249;28;20040;-71
2021/07/02 04:54:09;;;;;;;11.40;3.85;;;;;;;;;;5061767;28;20035;-72
2021/07/02 04:56:35;;;;;;;6.88;3.40;;;;;;;;;;5061890;28;20099;-69
2021/07/02 04:59:02;;;;;;;6.75;3.63;;;;;;;;;;5060330;28;20033;-69
2021/07/02 05:01:28;;;;;;;4.55;3.38;;;;;;;;;;5061508;28;20033;-69
2021/07/02 05:03:54;;;;;;;6.93;3.25;;;;;;;;;;5063235;28;20040;-70
2021/07/02 05:06:21;;;;;;;8.00;3.55;;;;;;;;;;5061617;28;20158;-70
2021/07/02 05:08:47;;;;;;;9.30;3.30;;;;;;;;;;5061293;28;20047;-69
2021/07/02 05:11:13;;;;;;;4.45;3.13;;;;;;;;;;5061284;28;20012;-70
2021/07/02 05:13:40;;;;;;;6.50;3.63;;;;;;;;;;5064602;28;20020;-70
2021/07/02 05:16:07;;;;;;;7.18;3.92;;;;;;;;;;5061578;28;20127;-69
2021/07/02 05:18:33;;;;;;;8.98;4.78;;;;;;;;;;5061261;28;21002;-70
2021/07/02 05:21:00;;;;;;;8.38;4.93;;;;;;;;;;5061465;28;20024;-69
2021/07/02 05:23:26;;;;;;;8.48;4.57;;;;;;;;;;5059603;28;20034;-70
2021/07/02 05:25:52;;;;;;;6.63;4.60;;;;;;;;;;5061774;28;20016;-69
2021/07/02 05:28:18;;;;;;;8.02;4.55;;;;;;;;;;5061204;28;20508;-70
2021/07/02 05:30:44;;;;;;;10.15;5.40;;;;;;;;;;5061694;28;20598;-70
2021/07/02 05:33:10;;;;;;;9.30;4.97;;;;;;;;;;5033307;28;20088;-70
2021/07/02 05:35:36;;;;;;;8.07;4.65;;;;;;;;;;5061113;28;20303;-70
2021/07/02 05:38:02;;;;;;;7.70;4.38;;;;;;;;;;5059818;28;20499;-69
2021/07/02 05:40:29;;;;;;;5.97;3.63;;;;;;;;;;5063649;28;20041;-70
2021/07/02 05:42:55;;;;;;;6.43;3.30;;;;;;;;;;5060798;28;20459;-71
2021/07/02 05:45:21;;;;;;;10.57;4.03;;;;;;;;;;5061366;28;20027;-71
2021/07/02 05:47:49;;;;;;;6.82;3.35;;;;;;;;;;5059850;28;20979;-71
2021/07/02 05:50:15;;;;;;;5.65;3.00;;;;;;;;;;5061166;28;20032;-70
2021/07/02 05:52:41;;;;;;;5.63;3.22;;;;;;;;;;5036864;28;20037;-71
2021/07/02 05:55:08;;;;;;;6.75;3.55;;;;;;;;;;5057909;28;20129;-71
2021/07/02 05:57:34;;;;;;;7.43;3.45;;;;;;;;;;5061056;28;20029;-71
2021/07/02 06:00:00;;;;;;;7.95;2.78;;;;;;;;;;5060875;28;20033;-71
2021/07/02 06:02:27;;;;;;;3.25;2.50;;;;;;;;;;5059115;28;20616;-71
2021/07/02 06:04:53;;;;;;;7.43;2.60;;;;;;;;;;5061424;28;20036;-70
2021/07/02 06:07:19;;;;;;;3.67;2.58;;;;;;;;;;5060832;28;20078;-71
2021/07/02 06:09:45;;;;;;;3.42;2.58;;;;;;;;;;5060075;28;20050;-70
2021/07/02 06:12:11;;;;;;;7.30;2.65;;;;;;;;;;5060419;28;20027;-71
2021/07/02 06:14:37;;;;;;;8.02;2.97;;;;;;;;;;5059046;28;20550;-69
2021/07/02 06:17:03;;;;;;;3.90;2.63;;;;;;;;;;5062723;28;20122;-69
2021/07/02 06:19:30;;;;;;;3.78;2.33;;;;;;;;;;5066490;28;20029;-69
2021/07/02 06:21:56;;;;;;;4.03;2.35;;;;;;;;;;5065841;28;20017;-70
2021/07/02 06:24:22;;;;;;;3.63;2.40;;;;;;;;;;5063923;28;20563;-70
2021/07/02 06:26:48;;;;;;;3.75;2.60;;;;;;;;;;5065975;28;20094;-70
2021/07/02 06:29:15;;;;;;;4.05;3.03;;;;;;;;;;5060871;28;20487;-70
2021/07/02 06:31:41;;;;;;;3.58;2.70;;;;;;;;;;5063354;28;20025;-70
2021/07/02 06:34:07;;;;;;;5.35;2.58;;;;;;;;;;5071826;28;20080;-70
2021/07/02 06:36:33;;;;;;;4.18;2.60;;;;;;;;;;5059750;28;20029;-70
2021/07/02 06:38:59;;;;;;;4.68;2.78;;;;;;;;;;5057469;28;20118;-70
2021/07/02 06:41:26;;;;;;;2.83;2.40;;;;;;;;;;5059661;28;20036;-71
2021/07/02 06:43:52;;;;;;;5.72;2.60;;;;;;;;;;5059767;28;20432;-71
2021/07/02 06:46:18;;;;;;;4.18;3.45;;;;;;;;;;5059595;28;20069;-71
2021/07/02 06:48:44;;;;;;;4.38;2.80;;;;;;;;;;5060270;28;20498;-71
2021/07/02 06:51:10;;;;;;;3.65;2.78;;;;;;;;;;5046449;28;20060;-70
2021/07/02 06:53:36;;;;;;;4.95;2.88;;;;;;;;;;5045609;28;20016;-70
2021/07/02 06:56:03;;;;;;;4.25;2.83;;;;;;;;;;5051063;28;20050;-69
2021/07/02 06:58:29;;;;;;;4.28;3.08;;;;;;;;;;5053447;28;20078;-70
2021/07/02 07:00:55;;;;;;;7.00;3.42;;;;;;;;;;5063344;28;20028;-69
2021/07/02 07:03:22;;;;;;;7.57;2.85;;;;;;;;;;5063259;28;20035;-69
2021/07/02 07:05:49;;;;;;;4.28;2.88;;;;;;;;;;5063962;28;20036;-69
2021/07/02 07:08:16;;;;;;;5.35;3.17;;;;;;;;;;5061547;28;20051;-69
2021/07/02 07:10:42;;;;;;;4.35;3.05;;;;;;;;;;5062463;28;20119;-70
2021/07/02 07:13:08;;;;;;;6.28;2.67;;;;;;;;;;5062647;28;20495;-69
2021/07/02 07:15:35;;;;;;;4.88;2.45;;;;;;;;;;5062921;28;20407;-69
2021/07/02 07:18:01;;;;;;;2.33;2.08;;;;;;;;;;5062299;28;20308;-69
2021/07/02 07:20:28;;;;;;;6.07;2.67;;;;;;;;;;5054988;28;20043;-69
2021/07/02 07:22:54;;;;;;;4.57;2.58;;;;;;;;;;5063678;28;20020;-69
2021/07/02 07:25:21;;;;;;;4.03;2.30;;;;;;;;;;5054305;28;20032;-69
2021/07/02 07:27:47;;;;;;;5.93;2.67;;;;;;;;;;5056233;28;20040;-71
2021/07/02 07:30:14;;;;;;;3.97;2.70;;;;;;;;;;5065225;28;20552;-70
2021/07/02 07:32:40;;;;;;;5.82;2.50;;;;;;;;;;5062770;28;20879;-69
2021/07/02 07:35:23;;;;;;;4.93;2.60;;;;;;;;;;5060975;28;20104;-70
2021/07/02 11:56:10;;;;;;;3.90;2.15;;;;;;;;;;5106851;27;20414;-71
2021/07/02 11:58:41;;;;;;;6.18;2.00;;;;;;;;;;5107861;28;20027;-73
2021/07/02 12:01:27;;;;;;;4.05;2.13;;;;;;;;;;5101074;28;20115;-72
2021/07/02 12:03:58;;;;;;;5.07;2.10;;;;;;;;;;5107181;28;20125;-71
2021/07/02 12:06:25;;;;;;;;;;;;;;;;;;5106862;28;20501;-71
2021/07/02 12:08:55;;;;;;;7.32;2.53;;;;;;;;;;5107030;28;19918;-71
2021/07/02 12:11:29;;;;;;;4.78;2.25;;;;;;;;;;5105059;28;20027;-71
2021/07/02 12:13:55;;;;;;;3.50;1.83;;;;;;;;;;5104145;28;20024;-71
2021/07/02 12:16:21;;;;;;;3.83;2.25;;;;;;;;;;5106494;28;20020;-74
2021/07/02 12:18:54;;;;;;;3.05;1.70;;;;;;;;;;5107053;28;20016;-70
2021/07/02 12:21:25;;;;;;;3.40;2.10;;;;;;;;;;5093411;28;20063;-70
2021/07/02 12:23:53;;;;;;;2.95;2.00;;;;;;;;;;5084918;28;20098;-71
2021/07/02 12:26:25;;;;;;;5.15;2.45;;;;;;;;;;5086845;28;20021;-71
2021/07/02 12:29:13;;;;;;;5.47;2.10;;;;;;;;;;5086612;28;20024;-71
2021/07/02 12:31:44;;;;;;;4.55;2.22;;;;;;;;;;5086456;28;20028;-70
2021/07/02 12:34:33;;;;;;;4.53;2.08;;;;;;;;;;5099669;28;20100;-71
2021/07/02 12:37:13;;;;;;;9.38;2.38;;;;;;;;;;5106472;28;20028;-71
2021/07/02 12:39:39;;;;;;;3.88;2.42;;;;;;;;;;5106073;28;20037;-70
2021/07/02 12:42:19;;;;;;;4.60;2.08;;;;;;;;;;5083555;28;20020;-70
2021/07/02 12:44:49;;;;;;;3.75;2.17;;;;;;;;;;5081008;28;20590;-70
2021/07/02 12:47:15;;;;;;;4.97;2.40;;;;;;;;;;5076651;28;20100;-69
2021/07/02 12:49:48;;;;;;;5.90;2.75;;;;;;;;;;5069718;28;20685;-71
2021/07/02 12:54:54;;;;;;;10.73;2.78;;;;;;;;;;5077023;28;20077;-70
2021/07/02 12:57:27;;;;;;;16.35;3.88;;;;;;;;;;5061262;28;20074;-71
2021/07/02 12:59:54;;;;;;;13.48;3.53;;;;;;;;;;5063045;28;20593;-70
2021/07/02 13:02:27;;;;;;;7.60;2.47;;;;;;;;;;5060921;28;20036;-70
2021/07/02 13:04:58;;;;;;;11.88;3.13;;;;;;;;;;5059825;28;20044;-70
2021/07/02 13:07:24;;;;;;;4.03;2.20;;;;;;;;;;5063599;28;20090;-70
2021/07/02 13:10:09;;;;;;;7.45;1.98;;;;;;;;;;5063110;28;20180;-70
2021/07/02 13:12:36;;;;;;;9.80;3.35;;;;;;;;;;5059999;28;20021;-70
2021/07/02 13:15:06;;;;;;;8.85;2.70;;;;;;;;;;5058468;28;20021;-70
2021/07/02 13:17:45;;;;;;;11.05;2.40;;;;;;;;;;5057320;28;20785;-70
2021/07/02 13:20:13;;;;;;;4.55;2.90;;;;;;;;;;5063493;28;20025;-70
2021/07/02 13:22:39;;;;;;;3.60;2.40;;;;;;;;;;5063711;28;20095;-71
2021/07/02 13:25:07;;;;;;;5.40;2.38;;;;;;;;;;5061669;28;20037;-70
2021/07/02 13:27:33;;;;;;;5.40;2.50;;;;;;;;;;5063243;28;20032;-70
2021/07/02 13:30:07;;;;;;;5.55;2.28;;;;;;;;;;5063274;28;20097;-71
2021/07/02 13:32:33;;;;;;;3.88;2.38;;;;;;;;;;5063186;28;20024;-70
2021/07/02 13:34:59;;;;;;;5.85;2.70;;;;;;;;;;5061550;28;20036;-70
2021/07/02 13:37:26;;;;;;;4.85;2.65;;;;;;;;;;5062954;28;20028;-69
2021/07/02 13:39:52;;;;;;;6.20;2.53;;;;;;;;;;5063756;28;20476;-70
2021/07/02 13:42:26;;;;;;;3.70;2.35;;;;;;;;;;5062924;28;20099;-70
2021/07/02 13:44:52;;;;;;;6.75;2.50;;;;;;;;;;5062824;28;20033;-70
2021/07/02 13:47:24;;;;;;;5.35;3.03;;;;;;;;;;5061914;28;20052;-69
2021/07/02 13:49:50;;;;;;;9.68;2.70;;;;;;;;;;5055922;28;20666;-69
2021/07/02 13:52:16;;;;;;;9.07;2.95;;;;;;;;;;5062488;28;20383;-70
2021/07/02 13:54:42;;;;;;;6.38;2.50;;;;;;;;;;5060643;28;20135;-70
2021/07/02 13:57:09;;;;;;;3.95;2.70;;;;;;;;;;5061843;28;20526;-70
2021/07/02 13:59:35;;;;;;;4.72;3.00;;;;;;;;;;5060614;28;20071;-71
2021/07/02 14:02:01;;;;;;;3.95;2.35;;;;;;;;;;5062686;28;20431;-70
2021/07/02 14:04:28;;;;;;;5.20;2.78;;;;;;;;;;5062543;28;20437;-70
2021/07/02 14:06:54;;;;;;;4.28;2.63;;;;;;;;;;5061827;28;20123;-71
2021/07/02 14:09:20;;;;;;;8.15;3.28;;;;;;;;;;5061137;28;20017;-70
2021/07/02 14:11:47;;;;;;;7.55;3.22;;;;;;;;;;5060238;28;20032;-70
2021/07/02 14:14:16;;;;;;;10.70;3.50;;;;;;;;;;5062224;28;20016;-71
2021/07/02 14:16:42;;;;;;;9.73;3.55;;;;;;;;;;5061868;28;20027;-70
2021/07/02 14:19:09;;;;;;;6.13;3.22;;;;;;;;;;5061277;28;20020;-70
2021/07/02 14:21:36;;;;;;;4.05;3.40;;;;;;;;;;5061643;28;20062;-70
2021/07/02 14:24:02;;;;;;;6.22;3.17;;;;;;;;;;5045855;28;20036;-70
2021/07/02 14:26:29;;;;;;;5.28;3.38;;;;;;;;;;5049759;28;20024;-70
2021/07/02 14:28:55;;;;;;;4.18;3.50;;;;;;;;;;5060583;28;20028;-70
2021/07/02 14:31:22;;;;;;;7.00;3.65;;;;;;;;;;5060945;28;20738;-70
2021/07/02 14:33:48;;;;;;;4.82;2.78;;;;;;;;;;5056787;28;20024;-71
2021/07/02 14:36:15;;;;;;;6.63;2.80;;;;;;;;;;5061752;28;20032;-69
2021/07/02 14:38:41;;;;;;;5.55;3.00;;;;;;;;;;5047072;28;20028;-69
2021/07/02 14:41:08;;;;;;;4.40;2.90;;;;;;;;;;5051088;28;20116;-70
2021/07/02 14:43:34;;;;;;;4.75;3.08;;;;;;;;;;5057291;28;20028;-70
2021/07/02 14:46:01;;;;;;;6.72;3.13;;;;;;;;;;5061520;28;20106;-73
2021/07/02 14:48:27;;;;;;;4.07;2.80;;;;;;;;;;5059524;28;20499;-73
2021/07/02 14:50:57;;;;;;;5.72;3.38;;;;;;;;;;5061734;28;20024;-73
2021/07/02 14:53:23;;;;;;;4.60;2.80;;;;;;;;;;5061587;28;20028;-72
2021/07/02 14:55:51;;;;;;;3.75;3.22;;;;;;;;;;5061232;28;20052;-73
2021/07/02 14:58:17;;;;;;;5.05;3.03;;;;;;;;;;5061457;28;20039;-74
2021/07/02 15:00:43;;;;;;;5.63;3.00;;;;;;;;;;5060753;28;20078;-72
2021/07/02 15:03:09;;;;;;;4.18;2.92;;;;;;;;;;5060248;28;20473;-72
2021/07/02 15:05:36;;;;;;;6.03;2.95;;;;;;;;;;5060792;28;20123;-72
2021/07/02 15:08:02;;;;;;;4.95;3.35;;;;;;;;;;5061123;28;20170;-72
2021/07/02 15:10:28;;;;;;;4.68;2.60;;;;;;;;;;5060986;28;20617;-73
2021/07/02 15:12:58;;;;;;;3.70;2.47;;;;;;;;;;5061425;28;20035;-73
2021/07/02 15:15:24;;;;;;;5.05;2.65;;;;;;;;;;5060758;28;20638;-72
2021/07/02 15:17:51;;;;;;;3.90;2.65;;;;;;;;;;5059598;28;20039;-73
2021/07/02 15:20:21;;;;;;;3.58;2.30;;;;;;;;;;5060382;28;20111;-72
2021/07/02 15:22:51;;;;;;;3.22;2.40;;;;;;;;;;5059287;28;20043;-73
2021/07/02 15:25:18;;;;;;;5.85;2.92;;;;;;;;;;5061360;28;20028;-73
2021/07/02 15:27:44;;;;;;;3.80;2.47;;;;;;;;;;5059433;28;20124;-73
2021/07/02 15:30:29;;;;;;;4.47;2.50;;;;;;;;;;5060215;28;20032;-73
2021/07/02 15:32:55;;;;;;;4.53;2.80;;;;;;;;;;5060088;28;20409;-73
2021/07/02 15:35:22;;;;;;;4.47;2.70;;;;;;;;;;5046898;28;20033;-73
2021/07/02 15:37:48;;;;;;;4.88;2.90;;;;;;;;;;5059451;28;20025;-73
2021/07/02 15:40:14;;;;;;;6.80;2.90;;;;;;;;;;5061183;28;20107;-73
2021/07/02 15:42:40;;;;;;;4.35;2.63;;;;;;;;;;5060607;28;20426;-73
2021/07/02 15:45:07;;;;;;;5.68;2.70;;;;;;;;;;5061207;28;20036;-73
2021/07/02 15:47:33;;;;;;;7.55;3.20;;;;;;;;;;5060728;28;20025;-73
2021/07/02 15:49:59;;;;;;;3.25;2.50;;;;;;;;;;5054302;28;20477;-72
2021/07/02 15:52:26;;;;;;;4.13;2.40;;;;;;;;;;5053353;28;20025;-72
2021/07/02 15:54:52;;;;;;;3.95;2.38;;;;;;;;;;5060527;28;20041;-73
2021/07/02 15:57:18;;;;;;;6.72;2.60;;;;;;;;;;5060862;28;20095;-72
2021/07/02 15:59:44;;;;;;;3.80;2.30;;;;;;;;;;5058827;28;20024;-73
2021/07/02 16:02:10;;;;;;;6.95;2.70;;;;;;;;;;5060775;28;20526;-72
2021/07/02 16:04:37;;;;;;;2.75;2.45;;;;;;;;;;5060480;28;20029;-73
2021/07/02 16:07:03;;;;;;;3.92;2.03;;;;;;;;;;5059941;28;20470;-72
2021/07/02 16:09:30;;;;;;;6.30;2.50;;;;;;;;;;5058588;28;20979;-73
2021/07/02 16:11:56;;;;;;;3.33;2.35;;;;;;;;;;5059764;28;20025;-73
2021/07/02 16:14:23;;;;;;;4.28;2.30;;;;;;;;;;5060075;28;20129;-73
2021/07/02 16:16:50;;;;;;;3.38;2.05;;;;;;;;;;5060083;28;20013;-73
2021/07/02 16:19:16;;;;;;;4.93;2.38;;;;;;;;;;5059205;28;20020;-72
2021/07/02 16:21:42;;;;;;;3.92;2.53;;;;;;;;;;5058485;28;20023;-73
2021/07/02 16:24:08;;;;;;;3.70;2.72;;;;;;;;;;5060127;28;20031;-70
2021/07/02 16:26:34;;;;;;;7.15;2.75;;;;;;;;;;5060376;28;20051;-73
2021/07/02 16:29:01;;;;;;;4.20;2.60;;;;;;;;;;5055868;28;20450;-73
2021/07/02 16:31:27;;;;;;;6.95;3.17;;;;;;;;;;5061388;28;20421;-73
2021/07/02 16:33:53;;;;;;;6.07;2.70;;;;;;;;;;5061245;28;20029;-72
2021/07/02 16:36:19;;;;;;;7.10;2.70;;;;;;;;;;5062787;28;20024;-72
2021/07/02 16:38:46;;;;;;;8.07;2.40;;;;;;;;;;5063906;28;20457;-72
2021/07/02 16:41:13;;;;;;;3.25;2.53;;;;;;;;;;5059314;28;20025;-73
2021/07/02 16:43:43;;;;;;;3.53;2.20;;;;;;;;;;5063863;28;20542;-73
2021/07/02 16:46:11;;;;;;;3.53;2.10;;;;;;;;;;5063207;28;20031;-73
2021/07/02 16:48:37;;;;;;;4.68;2.30;;;;;;;;;;5063260;28;20662;-72
2021/07/02 16:51:03;;;;;;;4.43;2.40;;;;;;;;;;5063360;28;20112;-74
2021/07/02 16:53:30;;;;;;;7.05;2.95;;;;;;;;;;5061825;28;20024;-72
2021/07/02 16:55:56;;;;;;;5.72;2.53;;;;;;;;;;5062721;28;20071;-73
2021/07/02 16:58:22;;;;;;;4.45;2.22;;;;;;;;;;5058386;28;20021;-72
2021/07/02 17:00:48;;;;;;;4.60;2.40;;;;;;;;;;5049263;28;20017;-72
2021/07/02 17:03:15;;;;;;;9.43;2.70;;;;;;;;;;5062134;28;20024;-72
2021/07/02 17:05:41;;;;;;;4.93;2.90;;;;;;;;;;5050248;28;20032;-72
2021/07/02 17:08:07;;;;;;;9.52;2.10;;;;;;;;;;5063978;28;20502;-72
2021/07/02 17:10:33;;;;;;;3.38;1.90;;;;;;;;;;5063185;28;20021;-72
2021/07/02 17:13:00;;;;;;;14.98;2.10;;;;;;;;;;5063716;28;20031;-72
2021/07/02 17:15:27;;;;;;;2.45;1.52;;;;;;;;;;5063469;28;20039;-72
2021/07/02 17:17:53;;;;;;;3.42;1.80;;;;;;;;;;5062678;28;20543;-73
2021/07/02 17:20:19;;;;;;;3.55;1.60;;;;;;;;;;5063397;28;20025;-73
2021/07/02 17:22:46;;;;;;;5.57;2.28;;;;;;;;;;5062351;28;20025;-73
2021/07/02 17:25:12;;;;;;;48.33;4.22;;;;;;;;;;5063206;28;20109;-72
2021/07/02 17:27:39;;;;;;;19.15;2.55;;;;;;;;;;5063306;28;20024;-72
2021/07/02 17:30:06;;;;;;;3.15;1.80;;;;;;;;;;5063252;28;20033;-72
2021/07/02 17:32:33;;;;;;;5.53;1.98;;;;;;;;;;5061412;28;20520;-72
2021/07/02 17:34:59;;;;;;;2.17;1.73;;;;;;;;;;5063337;28;20041;-71
2021/07/02 17:37:26;;;;;;;3.28;1.63;;;;;;;;;;5062892;28;20632;-71
2021/07/02 17:39:52;;;;;;;2.15;1.67;;;;;;;;;;5063319;28;20044;-71
2021/07/02 17:42:19;;;;;;;2.00;1.40;;;;;;;;;;5061364;28;20024;-71
2021/07/02 17:44:46;;;;;;;1.30;1.20;;;;;;;;;;5063007;28;20443;-71
2021/07/02 17:47:12;;;;;;;2.08;1.70;;;;;;;;;;5062754;28;20028;-71
2021/07/02 17:49:39;;;;;;;7.18;2.17;;;;;;;;;;5062711;28;20535;-71
2021/07/02 17:52:06;;;;;;;2.38;2.00;;;;;;;;;;5062513;28;20029;-71
2021/07/02 17:54:33;;;;;;;2.65;2.00;;;;;;;;;;5060379;28;20528;-71
2021/07/02 17:57:04;;;;;;;3.50;2.17;;;;;;;;;;5063114;28;20384;-71
2021/07/02 17:59:31;;;;;;;2.22;1.70;;;;;;;;;;5062657;28;20028;-71
2021/07/02 18:01:57;;;;;;;3.30;2.15;;;;;;;;;;5062321;28;20554;-71
2021/07/02 18:04:23;;;;;;;3.88;2.15;;;;;;;;;;5062623;28;20799;-71
2021/07/02 18:06:49;;;;;;;4.40;2.80;;;;;;;;;;5061959;28;20020;-71
2021/07/02 18:09:15;;;;;;;3.20;2.38;;;;;;;;;;5062089;28;20067;-71
2021/07/02 18:11:42;;;;;;;3.25;2.15;;;;;;;;;;5060426;28;20032;-71
2021/07/02 18:14:08;;;;;;;5.35;2.63;;;;;;;;;;5061489;28;20028;-72
2021/07/02 18:16:36;;;;;;;4.50;2.03;;;;;;;;;;5062208;28;20033;-71
2021/07/02 18:19:03;;;;;;;2.67;2.15;;;;;;;;;;5061958;28;20086;-71
2021/07/02 18:21:29;;;;;;;2.70;2.20;;;;;;;;;;5060101;28;20488;-71
2021/07/02 18:23:55;;;;;;;3.17;2.30;;;;;;;;;;5061684;28;20048;-71
2021/07/02 18:26:21;;;;;;;2.60;1.90;;;;;;;;;;5061978;28;20012;-70
2021/07/02 18:28:49;;;;;;;3.97;2.40;;;;;;;;;;5061189;28;20519;-71
2021/07/02 18:31:15;;;;;;;3.30;3.00;;;;;;;;;;5062194;28;20024;-72
2021/07/02 18:33:41;;;;;;;5.63;2.58;;;;;;;;;;5061889;28;20119;-72
2021/07/02 18:36:08;;;;;;;6.10;2.53;;;;;;;;;;5059956;28;20388;-70
2021/07/02 18:38:34;;;;;;;4.68;2.40;;;;;;;;;;5060509;28;20113;-72
2021/07/02 18:41:00;;;;;;;6.05;2.40;;;;;;;;;;5061816;28;20479;-71
2021/07/02 18:43:26;;;;;;;4.00;2.28;;;;;;;;;;5060963;28;20032;-71
2021/07/02 18:45:52;;;;;;;3.88;2.38;;;;;;;;;;5061360;28;20029;-72
2021/07/02 18:48:19;;;;;;;2.80;2.10;;;;;;;;;;5059098;28;20162;-73
2021/07/02 18:50:46;;;;;;;5.38;2.17;;;;;;;;;;5061439;28;20032;-71
2021/07/02 18:53:14;;;;;;;5.95;2.40;;;;;;;;;;5059654;28;20051;-71
2021/07/02 18:55:40;;;;;;;3.78;2.75;;;;;;;;;;5059874;28;20477;-71
2021/07/02 18:58:06;;;;;;;3.45;2.40;;;;;;;;;;5061583;28;20023;-72
2021/07/02 19:00:32;;;;;;;3.40;2.70;;;;;;;;;;5061313;28;20024;-72
2021/07/02 19:02:59;;;;;;;2.50;2.20;;;;;;;;;;5061523;28;20082;-71